createdAt,value
2018-03-19T00:00:27.989Z,101260
2018-03-19T00:02:55.919Z,101253
2018-03-19T00:05:23.828Z,101259
2018-03-19T00:07:51.744Z,101257
2018-03-19T00:10:19.666Z,101258
2018-03-19T00:12:47.590Z,101257
2018-03-19T00:15:15.499Z,101244
2018-03-19T00:17:43.400Z,101243
2018-03-19T00:20:11.304Z,101242
2018-03-19T00:22:39.236Z,101243
2018-03-19T00:25:07.380Z,101233
2018-03-19T00:27:35.276Z,101240
2018-03-19T00:30:03.237Z,101238
2018-03-19T00:32:31.157Z,101230
2018-03-19T00:34:59.065Z,101228
2018-03-19T00:37:26.966Z,101227
2018-03-19T00:39:54.891Z,101228
2018-03-19T00:42:22.795Z,101224
2018-03-19T00:44:50.754Z,101223
2018-03-19T00:47:18.676Z,101215
2018-03-19T00:49:46.615Z,101232
2018-03-19T00:52:14.568Z,101219
2018-03-19T00:54:42.508Z,101210
2018-03-19T00:57:10.441Z,101213
2018-03-19T00:59:38.361Z,101215
2018-03-19T01:02:06.278Z,101206
2018-03-19T01:04:34.183Z,101203
2018-03-19T01:07:02.143Z,101204
2018-03-19T01:09:30.041Z,101198
2018-03-19T01:11:57.965Z,101203
2018-03-19T01:14:25.869Z,101195
2018-03-19T01:16:53.766Z,101205
2018-03-19T01:19:21.693Z,101207
2018-03-19T01:21:56.601Z,101198
2018-03-19T01:24:24.521Z,101206
2018-03-19T01:26:52.425Z,101203
2018-03-19T01:29:20.378Z,101193
2018-03-19T01:31:48.272Z,101209
2018-03-19T01:34:16.190Z,101197
2018-03-19T01:36:44.092Z,101206
2018-03-19T01:39:12.009Z,101188
2018-03-19T01:41:39.913Z,101208
2018-03-19T01:44:07.836Z,101200
2018-03-19T01:46:35.756Z,101201
2018-03-19T01:49:03.674Z,101197
2018-03-19T01:51:31.580Z,101194
2018-03-19T01:53:59.761Z,101197
2018-03-19T01:56:27.693Z,101206
2018-03-19T01:58:55.651Z,101197
2018-03-19T02:01:23.535Z,101196
2018-03-19T02:03:51.459Z,101201
2018-03-19T02:06:19.365Z,101199
2018-03-19T02:08:47.273Z,101205
2018-03-19T02:11:21.978Z,101201
2018-03-19T02:13:49.919Z,101194
2018-03-19T02:16:17.813Z,101188
2018-03-19T02:18:45.725Z,101179
2018-03-19T02:21:13.637Z,101186
2018-03-19T02:26:18.155Z,101181
2018-03-19T02:28:46.068Z,101181
2018-03-19T02:31:13.985Z,101180
2018-03-19T02:33:41.901Z,101179
2018-03-19T02:36:09.843Z,101176
2018-03-19T02:38:37.753Z,101164
2018-03-19T02:41:06.075Z,101170
2018-03-19T02:43:33.973Z,101161
2018-03-19T02:46:01.860Z,101167
2018-03-19T02:48:29.788Z,101172
2018-03-19T02:50:57.714Z,101173
2018-03-19T02:53:25.624Z,101171
2018-03-19T02:55:53.530Z,101169
2018-03-19T02:58:21.841Z,101171
2018-03-19T03:00:49.753Z,101174
2018-03-19T03:03:17.676Z,101169
2018-03-19T03:05:45.641Z,101169
2018-03-19T03:08:13.562Z,101172
2018-03-19T03:10:41.468Z,101172
2018-03-19T03:13:09.386Z,101172
2018-03-19T03:15:37.305Z,101179
2018-03-19T03:18:05.210Z,101175
2018-03-19T03:20:33.112Z,101176
2018-03-19T03:23:01.444Z,101174
2018-03-19T03:25:29.368Z,101174
2018-03-19T03:27:57.280Z,101181
2018-03-19T03:30:25.201Z,101173
2018-03-19T03:32:53.122Z,101179
2018-03-19T03:35:21.024Z,101182
2018-03-19T03:37:48.916Z,101169
2018-03-19T03:40:17.176Z,101175
2018-03-19T03:42:45.101Z,101172
2018-03-19T03:45:13.020Z,101170
2018-03-19T03:47:40.936Z,101177
2018-03-19T03:50:08.842Z,101183
2018-03-19T03:52:36.747Z,101174
2018-03-19T03:55:04.660Z,101170
2018-03-19T03:57:32.575Z,101174
2018-03-19T04:00:00.988Z,101181
2018-03-19T04:02:28.888Z,101171
2018-03-19T04:04:56.801Z,101178
2018-03-19T04:07:24.714Z,101177
2018-03-19T04:09:52.608Z,101182
2018-03-19T04:12:20.513Z,101180
2018-03-19T04:14:48.430Z,101182
2018-03-19T04:17:16.330Z,101193
2018-03-19T04:19:44.236Z,101231
2018-03-19T04:22:12.150Z,101190
2018-03-19T04:24:40.079Z,101179
2018-03-19T04:27:07.981Z,101182
2018-03-19T04:29:35.904Z,101192
2018-03-19T04:32:04.165Z,101194
2018-03-19T04:34:32.078Z,101195
2018-03-19T04:36:59.988Z,101185
2018-03-19T04:39:27.912Z,101190
2018-03-19T04:41:55.825Z,101192
2018-03-19T04:44:23.725Z,101191
2018-03-19T04:46:51.645Z,101189
2018-03-19T04:49:19.559Z,101190
2018-03-19T04:51:47.486Z,101199
2018-03-19T04:54:15.681Z,101189
2018-03-19T04:56:43.605Z,101197
2018-03-19T04:59:11.517Z,101195
2018-03-19T05:01:39.450Z,101188
2018-03-19T05:04:07.369Z,101185
2018-03-19T05:06:35.281Z,101183
2018-03-19T05:09:03.220Z,101186
2018-03-19T05:11:31.132Z,101187
2018-03-19T05:13:59.052Z,101184
2018-03-19T05:16:26.953Z,101180
2018-03-19T05:18:54.878Z,101181
2018-03-19T05:21:22.788Z,101190
2018-03-19T05:23:51.061Z,101188
2018-03-19T05:26:18.995Z,101183
2018-03-19T05:28:46.909Z,101196
2018-03-19T05:31:14.845Z,101190
2018-03-19T05:33:42.773Z,101191
2018-03-19T05:36:10.680Z,101193
2018-03-19T05:38:38.607Z,101191
2018-03-19T05:41:06.513Z,101195
2018-03-19T05:43:34.414Z,101201
2018-03-19T05:46:02.308Z,101191
2018-03-19T05:48:30.224Z,101200
2018-03-19T05:50:58.131Z,101206
2018-03-19T05:53:26.052Z,101203
2018-03-19T05:55:53.956Z,101201
2018-03-19T05:58:21.936Z,101214
2018-03-19T06:00:49.857Z,101204
2018-03-19T06:03:17.773Z,101206
2018-03-19T06:05:45.707Z,101209
2018-03-19T06:08:13.615Z,101218
2018-03-19T06:10:41.718Z,101223
2018-03-19T06:13:09.641Z,101214
2018-03-19T06:15:37.541Z,101224
2018-03-19T06:18:05.463Z,101217
2018-03-19T06:20:33.356Z,101239
2018-03-19T06:23:01.277Z,101238
2018-03-19T06:25:29.197Z,101230
2018-03-19T06:27:57.488Z,101247
2018-03-19T06:30:25.418Z,101236
2018-03-19T06:32:53.649Z,101225
2018-03-19T06:35:21.615Z,101235
2018-03-19T06:37:49.505Z,101238
2018-03-19T06:40:17.409Z,101235
2018-03-19T06:42:45.323Z,101234
2018-03-19T06:45:13.253Z,101237
2018-03-19T06:47:41.181Z,101243
2018-03-19T06:50:09.092Z,101243
2018-03-19T06:52:37.000Z,101243
2018-03-19T06:55:04.912Z,101246
2018-03-19T06:57:33.313Z,101248
2018-03-19T07:00:01.217Z,101248
2018-03-19T07:02:29.132Z,101246
2018-03-19T07:04:57.052Z,101244
2018-03-19T07:07:24.973Z,101248
2018-03-19T07:09:52.900Z,101258
2018-03-19T07:12:20.800Z,101262
2018-03-19T07:14:48.725Z,101255
2018-03-19T07:17:16.666Z,101255
2018-03-19T07:19:44.569Z,101260
2018-03-19T07:22:12.489Z,101268
2018-03-19T07:24:40.869Z,101266
2018-03-19T07:27:08.788Z,101253
2018-03-19T07:29:36.685Z,101260
2018-03-19T07:32:04.592Z,101263
2018-03-19T07:34:32.514Z,101261
2018-03-19T07:37:00.417Z,101270
2018-03-19T07:39:28.328Z,101261
2018-03-19T07:41:56.232Z,101266
2018-03-19T07:44:24.137Z,101268
2018-03-19T07:46:52.041Z,101256
2018-03-19T07:49:19.960Z,101258
2018-03-19T07:51:47.877Z,101269
2018-03-19T07:54:15.772Z,101269
2018-03-19T07:56:44.163Z,101259
2018-03-19T07:59:12.093Z,101270
2018-03-19T08:01:39.988Z,101268
2018-03-19T08:04:07.917Z,101264
2018-03-19T08:06:35.824Z,101259
2018-03-19T08:09:03.741Z,101262
2018-03-19T08:11:31.632Z,101267
2018-03-19T08:13:59.529Z,101269
2018-03-19T08:16:27.455Z,101270
2018-03-19T08:18:55.424Z,101268
2018-03-19T08:21:23.383Z,101275
2018-03-19T08:23:51.732Z,101273
2018-03-19T08:26:19.632Z,101272
2018-03-19T08:28:47.567Z,101275
2018-03-19T08:31:15.497Z,101280
2018-03-19T08:33:43.417Z,101266
2018-03-19T08:36:11.316Z,101262
2018-03-19T08:38:39.239Z,101268
2018-03-19T08:41:07.147Z,101273
2018-03-19T08:43:35.057Z,101269
2018-03-19T08:46:02.984Z,101265
2018-03-19T08:48:30.913Z,101277
2018-03-19T08:50:58.848Z,101266
2018-03-19T08:53:27.324Z,101261
2018-03-19T08:55:55.226Z,101266
2018-03-19T08:58:23.121Z,101267
2018-03-19T09:00:51.042Z,101266
2018-03-19T09:03:18.948Z,101272
2018-03-19T09:05:46.845Z,101266
2018-03-19T09:08:14.750Z,101263
2018-03-19T09:10:42.644Z,101263
2018-03-19T09:13:10.557Z,101271
2018-03-19T09:15:38.465Z,101264
2018-03-19T09:18:06.382Z,101267
2018-03-19T09:20:34.308Z,101271
2018-03-19T09:23:02.208Z,101269
2018-03-19T09:25:30.143Z,101261
2018-03-19T09:27:58.041Z,101267
2018-03-19T09:30:26.393Z,101258
2018-03-19T09:32:54.309Z,101268
2018-03-19T09:35:22.224Z,101253
2018-03-19T09:37:50.148Z,101270
2018-03-19T09:40:18.067Z,101253
2018-03-19T09:42:45.988Z,101259
2018-03-19T09:45:13.900Z,101266
2018-03-19T09:47:41.820Z,101255
2018-03-19T09:50:10.026Z,101256
2018-03-19T09:52:37.950Z,101260
2018-03-19T09:55:05.868Z,101260
2018-03-19T09:57:33.817Z,101258
2018-03-19T10:00:01.728Z,101260
2018-03-19T10:02:29.666Z,101261
2018-03-19T10:04:57.572Z,101247
2018-03-19T10:07:25.489Z,101247
2018-03-19T10:09:53.410Z,101246
2018-03-19T10:12:21.347Z,101244
2018-03-19T10:14:49.335Z,101240
2018-03-19T10:17:17.192Z,101238
2018-03-19T10:19:45.100Z,101231
2018-03-19T10:22:13.021Z,101234
2018-03-19T10:24:40.951Z,101245
2018-03-19T10:27:08.872Z,101238
2018-03-19T10:29:37.140Z,101237
2018-03-19T10:32:05.068Z,101242
2018-03-19T10:34:32.972Z,101229
2018-03-19T10:37:00.871Z,101224
2018-03-19T10:39:28.772Z,101216
2018-03-19T10:41:56.676Z,101214
2018-03-19T10:44:24.588Z,101213
2018-03-19T10:46:52.505Z,101225
2018-03-19T10:49:20.429Z,101228
2018-03-19T10:51:48.329Z,101224
2018-03-19T10:54:16.236Z,101224
2018-03-19T10:56:44.153Z,101209
2018-03-19T10:59:12.080Z,101221
2018-03-19T11:01:42.874Z,101208
2018-03-19T11:04:10.849Z,101210
2018-03-19T11:06:45.220Z,101206
2018-03-19T11:09:19.228Z,101218
2018-03-19T11:11:47.186Z,101210
2018-03-19T11:14:15.111Z,101197
2018-03-19T11:16:43.042Z,101196
2018-03-19T11:19:10.968Z,101199
2018-03-19T11:21:38.923Z,101188
2018-03-19T11:24:07.424Z,101185
2018-03-19T11:26:35.380Z,101188
2018-03-19T11:29:03.297Z,101182
2018-03-19T11:31:31.235Z,101177
2018-03-19T11:33:59.168Z,101179
2018-03-19T11:36:27.080Z,101184
2018-03-19T11:38:55.017Z,101180
2018-03-19T11:41:22.961Z,101172
2018-03-19T11:43:50.886Z,101156
2018-03-19T11:46:18.798Z,101166
2018-03-19T11:48:46.716Z,101159
2018-03-19T11:51:14.691Z,101161
2018-03-19T11:53:42.621Z,101161
2018-03-19T11:56:10.544Z,101170
2018-03-19T11:58:38.884Z,101160
2018-03-19T12:01:06.787Z,101163
2018-03-19T12:03:34.713Z,101165
2018-03-19T12:06:02.649Z,101152
2018-03-19T12:08:30.572Z,101153
2018-03-19T12:10:58.490Z,101150
2018-03-19T12:13:26.409Z,101149
2018-03-19T12:15:54.321Z,101150
2018-03-19T12:18:22.246Z,101141
2018-03-19T12:20:50.350Z,101138
2018-03-19T12:23:18.694Z,101135
2018-03-19T12:25:46.592Z,101138
2018-03-19T12:28:21.294Z,101141
2018-03-19T12:30:49.205Z,101124
2018-03-19T12:33:17.136Z,101124
2018-03-19T12:35:45.060Z,101123
2018-03-19T12:38:12.980Z,101121
2018-03-19T12:40:40.897Z,101110
2018-03-19T12:43:08.813Z,101109
2018-03-19T12:45:36.710Z,101112
2018-03-19T12:48:04.617Z,101112
2018-03-19T12:50:32.527Z,101103
2018-03-19T12:53:00.457Z,101095
2018-03-19T12:55:28.740Z,101095
2018-03-19T12:57:56.653Z,101102
2018-03-19T13:00:24.589Z,101091
2018-03-19T13:02:52.520Z,101088
2018-03-19T13:05:20.437Z,101091
2018-03-19T13:07:48.396Z,101089
2018-03-19T13:10:16.301Z,101092
2018-03-19T13:12:44.208Z,101095
2018-03-19T13:15:12.112Z,101087
2018-03-19T13:17:40.044Z,101076
2018-03-19T13:20:07.945Z,101077
2018-03-19T13:22:35.860Z,101076
2018-03-19T13:25:04.172Z,101071
2018-03-19T13:27:32.083Z,101079
2018-03-19T13:30:00.029Z,101075
2018-03-19T13:32:27.932Z,101065
2018-03-19T13:34:55.926Z,101063
2018-03-19T13:37:23.837Z,101063
2018-03-19T13:39:51.739Z,101063
2018-03-19T13:42:19.665Z,101066
2018-03-19T13:44:47.606Z,101056
2018-03-19T13:47:15.519Z,101060
2018-03-19T13:49:43.436Z,101051
2018-03-19T13:52:11.346Z,101055
2018-03-19T13:54:39.677Z,101046
2018-03-19T13:57:07.614Z,101058
2018-03-19T13:59:35.521Z,101051
2018-03-19T14:02:03.437Z,101046
2018-03-19T14:04:31.357Z,101045
2018-03-19T14:06:59.385Z,101031
2018-03-19T14:09:27.300Z,101036
2018-03-19T14:11:55.203Z,101030
2018-03-19T14:14:23.120Z,101020
2018-03-19T14:16:51.044Z,101019
2018-03-19T14:19:18.939Z,101023
2018-03-19T14:21:46.852Z,101011
2018-03-19T14:24:14.819Z,101017
2018-03-19T14:26:42.732Z,101014
2018-03-19T14:29:10.642Z,101016
2018-03-19T14:31:38.568Z,101016
2018-03-19T14:34:06.480Z,101015
2018-03-19T14:36:34.394Z,101003
2018-03-19T14:39:02.312Z,101005
2018-03-19T14:41:30.637Z,101010
2018-03-19T14:43:58.545Z,100996
2018-03-19T14:46:26.462Z,100995
2018-03-19T14:48:54.380Z,100998
2018-03-19T14:51:22.280Z,100993
2018-03-19T14:53:50.197Z,101002
2018-03-19T14:56:18.119Z,100995
2018-03-19T14:58:46.356Z,100984
2018-03-19T15:01:14.272Z,100982
2018-03-19T15:03:42.177Z,100978
2018-03-19T15:06:10.097Z,100975
2018-03-19T15:08:37.997Z,100965
2018-03-19T15:11:05.902Z,100975
2018-03-19T15:13:33.805Z,100965
2018-03-19T15:16:01.726Z,100960
2018-03-19T15:18:29.665Z,100960
2018-03-19T15:20:57.617Z,100954
2018-03-19T15:23:25.524Z,100948
2018-03-19T15:25:53.504Z,100955
2018-03-19T15:28:21.921Z,100953
2018-03-19T15:30:49.828Z,100949
2018-03-19T15:33:17.723Z,100942
2018-03-19T15:35:45.645Z,100939
2018-03-19T15:38:13.587Z,100937
2018-03-19T15:40:41.493Z,100936
2018-03-19T15:43:09.400Z,100926
2018-03-19T15:45:37.312Z,100921
2018-03-19T15:48:05.230Z,100932
2018-03-19T15:50:33.166Z,100929
2018-03-19T15:53:01.496Z,100928
2018-03-19T15:55:29.408Z,100928
2018-03-19T15:57:57.317Z,100924
2018-03-19T16:00:25.244Z,100928
2018-03-19T16:02:53.155Z,100923
2018-03-19T16:05:21.061Z,100916
2018-03-19T16:07:48.972Z,100912
2018-03-19T16:10:16.882Z,100906
2018-03-19T16:12:44.790Z,100911
2018-03-19T16:15:12.712Z,100913
2018-03-19T16:17:40.637Z,100920
2018-03-19T16:20:08.539Z,100914
2018-03-19T16:22:37.016Z,100924
2018-03-19T16:25:04.933Z,100917
2018-03-19T16:27:32.840Z,100919
2018-03-19T16:30:00.761Z,100915
2018-03-19T16:32:28.652Z,100920
2018-03-19T16:34:56.556Z,100918
2018-03-19T16:37:24.460Z,100916
2018-03-19T16:39:52.416Z,100909
2018-03-19T16:42:20.330Z,100914
2018-03-19T16:44:48.296Z,100911
2018-03-19T16:47:16.200Z,100905
2018-03-19T16:49:44.139Z,100903
2018-03-19T16:52:12.041Z,100906
2018-03-19T16:54:40.420Z,100912
2018-03-19T16:57:08.353Z,100905
2018-03-19T16:59:36.252Z,100922
2018-03-19T17:02:04.165Z,100879
2018-03-19T17:04:32.080Z,100915
2018-03-19T17:06:59.983Z,100911
2018-03-19T17:09:27.892Z,100905
2018-03-19T17:11:55.826Z,100908
2018-03-19T17:14:23.748Z,100914
2018-03-19T17:16:51.683Z,100909
2018-03-19T17:19:19.597Z,100913
2018-03-19T17:21:47.529Z,100923
2018-03-19T17:24:15.452Z,100928
2018-03-19T17:26:43.367Z,100914
2018-03-19T17:29:11.301Z,100908
2018-03-19T17:31:39.229Z,100910
2018-03-19T17:34:07.134Z,100913
2018-03-19T17:36:35.048Z,100914
2018-03-19T17:39:02.996Z,100911
2018-03-19T17:41:31.208Z,100915
2018-03-19T17:43:59.128Z,100922
2018-03-19T17:46:27.032Z,100926
2018-03-19T17:48:54.956Z,100919
2018-03-19T17:51:22.863Z,100923
2018-03-19T17:53:50.780Z,100924
2018-03-19T17:56:18.696Z,100929
2018-03-19T17:58:46.999Z,100938
2018-03-19T18:01:14.917Z,100932
2018-03-19T18:03:42.816Z,100930
2018-03-19T18:06:10.725Z,100934
2018-03-19T18:08:38.633Z,100934
2018-03-19T18:11:06.539Z,100939
2018-03-19T18:13:34.463Z,100938
2018-03-19T18:16:02.382Z,100943
2018-03-19T18:18:30.280Z,100933
2018-03-19T18:20:58.781Z,100949
2018-03-19T18:23:26.736Z,100951
2018-03-19T18:25:54.698Z,100950
2018-03-19T18:28:22.612Z,100944
2018-03-19T18:30:50.591Z,100943
2018-03-19T18:33:18.818Z,100951
2018-03-19T18:35:46.779Z,100947
2018-03-19T18:38:15.020Z,100935
2018-03-19T18:40:42.949Z,100947
2018-03-19T18:43:10.840Z,100953
2018-03-19T18:45:38.747Z,100950
2018-03-19T18:48:06.648Z,100938
2018-03-19T18:50:34.548Z,100942
2018-03-19T18:53:02.512Z,100933
2018-03-19T18:55:30.454Z,100934
2018-03-19T18:57:58.714Z,100934
2018-03-19T19:00:26.623Z,100930
2018-03-19T19:02:54.552Z,100929
2018-03-19T19:05:22.464Z,100926
2018-03-19T19:07:50.405Z,100920
2018-03-19T19:10:18.323Z,100921
2018-03-19T19:12:46.225Z,100911
2018-03-19T19:15:14.145Z,100921
2018-03-19T19:17:42.060Z,100926
2018-03-19T19:20:10.404Z,100918
2018-03-19T19:22:38.325Z,100915
2018-03-19T19:25:06.246Z,100920
2018-03-19T19:27:34.264Z,100920
2018-03-19T19:30:02.187Z,100920
2018-03-19T19:32:30.123Z,100917
2018-03-19T19:34:58.022Z,100908
2018-03-19T19:37:25.968Z,100913
2018-03-19T19:39:53.884Z,100914
2018-03-19T19:42:21.786Z,100913
2018-03-19T19:44:49.693Z,100911
2018-03-19T19:47:17.602Z,100898
2018-03-19T19:49:45.888Z,100888
2018-03-19T19:52:13.793Z,100905
2018-03-19T19:54:41.689Z,100897
2018-03-19T19:57:09.595Z,100900
2018-03-19T19:59:37.522Z,100891
2018-03-19T20:02:05.450Z,100896
2018-03-19T20:04:33.356Z,100882
2018-03-19T20:07:01.286Z,100886
2018-03-19T20:09:29.192Z,100877
2018-03-19T20:11:57.122Z,100880
2018-03-19T20:14:25.015Z,100896
2018-03-19T20:16:52.929Z,100905
2018-03-19T20:19:20.836Z,100894
2018-03-19T20:21:48.746Z,100885
2018-03-19T20:24:16.652Z,100879
2018-03-19T20:26:44.545Z,100875
2018-03-19T20:29:12.456Z,100880
2018-03-19T20:31:40.370Z,100877
2018-03-19T20:34:08.300Z,100870
2018-03-19T20:36:36.212Z,100870
2018-03-19T20:39:04.164Z,100867
2018-03-19T20:41:32.081Z,100859
2018-03-19T20:43:59.977Z,100871
2018-03-19T20:46:27.889Z,100856
2018-03-19T20:48:55.822Z,100860
2018-03-19T20:51:23.764Z,100852
2018-03-19T20:53:52.160Z,100856
2018-03-19T20:56:20.074Z,100846
2018-03-19T20:58:47.976Z,100846
2018-03-19T21:01:15.889Z,100824
2018-03-19T21:03:43.808Z,100825
2018-03-19T21:06:11.724Z,100821
2018-03-19T21:08:39.639Z,100830
2018-03-19T21:11:07.555Z,100818
2018-03-19T21:13:35.453Z,100811
2018-03-19T21:16:03.399Z,100813
2018-03-19T21:18:31.268Z,100815
2018-03-19T21:20:59.200Z,100807
2018-03-19T21:23:27.545Z,100808
2018-03-19T21:25:55.445Z,100798
2018-03-19T21:28:23.371Z,100798
2018-03-19T21:30:51.305Z,100793
2018-03-19T21:33:19.216Z,100783
2018-03-19T21:35:47.153Z,100786
2018-03-19T21:38:15.063Z,100798
2018-03-19T21:40:42.988Z,100796
2018-03-19T21:43:10.888Z,100798
2018-03-19T21:45:38.827Z,100800
2018-03-19T21:48:06.737Z,100797
2018-03-19T21:50:34.655Z,100786
2018-03-19T21:53:02.560Z,100779
2018-03-19T21:55:30.488Z,100786
2018-03-19T21:57:58.400Z,100778
2018-03-19T22:00:26.313Z,100783
2018-03-19T22:02:54.261Z,100769
2018-03-19T22:05:22.168Z,100778
2018-03-19T22:07:50.085Z,100776
2018-03-19T22:10:17.989Z,100769
2018-03-19T22:12:45.929Z,100764
2018-03-19T22:15:13.876Z,100769
2018-03-19T22:17:41.781Z,100766
2018-03-19T22:20:09.676Z,100752
2018-03-19T22:22:37.987Z,100764
2018-03-19T22:25:05.912Z,100755
2018-03-19T22:27:33.821Z,100747
2018-03-19T22:30:01.728Z,100753
2018-03-19T22:32:29.634Z,100753
2018-03-19T22:34:57.543Z,100746
2018-03-19T22:37:25.456Z,100742
2018-03-19T22:39:53.580Z,100743
2018-03-19T22:42:21.493Z,100733
2018-03-19T22:44:49.412Z,100732
2018-03-19T22:47:17.323Z,100726
2018-03-19T22:49:45.235Z,100721
2018-03-19T22:52:13.140Z,100721
2018-03-19T22:54:41.052Z,100729
2018-03-19T22:57:09.528Z,100722
2018-03-19T22:59:37.429Z,100720
2018-03-19T23:02:05.332Z,100712
2018-03-19T23:04:45.671Z,100712
2018-03-19T23:07:13.585Z,100707
2018-03-19T23:09:41.489Z,100694
2018-03-19T23:12:09.411Z,100688
2018-03-19T23:14:37.332Z,100694
2018-03-19T23:17:05.233Z,100677
2018-03-19T23:19:33.154Z,100679
2018-03-19T23:22:01.057Z,100668
2018-03-19T23:24:29.176Z,100666
2018-03-19T23:26:57.089Z,100670
2018-03-19T23:29:24.981Z,100678
2018-03-19T23:31:52.913Z,100676
2018-03-19T23:34:20.816Z,100672
2018-03-19T23:36:48.719Z,100670
2018-03-19T23:39:16.624Z,100663
2018-03-19T23:41:44.754Z,100657
2018-03-19T23:44:12.662Z,100655
2018-03-19T23:46:40.566Z,100660
2018-03-19T23:49:08.487Z,100655
2018-03-19T23:51:36.392Z,100648
2018-03-19T23:54:04.626Z,100649
2018-03-19T23:56:32.539Z,100646
2018-03-19T23:59:00.444Z,100644
